Time;durP1;ratioP1;P1;durP2;ratioP2;P2;SDS_P1;SDS_P2;PMS_P1;PMS_P2;Temp;Humidity;BMP_temperature;BMP_pressure;BME280_temperature;BME280_humidity;BME280_pressure;Samples;Min_cycle;Max_cycle;Signal;HPM_P1;HPM_P2
2022/03/28 00:00:07;;;;;;;78.50;33.70;;;;;;;2.39;44.65;99639.16;219649;1276;23798;-67
2022/03/28 00:05:14;;;;;;;73.90;32.00;;;;;;;2.35;44.59;99642.45;219283;1278;22584;-69
2022/03/28 00:10:17;;;;;;;69.30;29.80;;;;;;;2.31;44.66;99641.33;219657;1276;23849;-69
2022/03/28 00:15:20;;;;;;;63.50;27.90;;;;;;;2.28;44.63;99635.97;219457;1276;25435;-69
2022/03/28 00:20:24;;;;;;;59.10;26.80;;;;;;;2.28;44.89;99634.43;219435;1276;22538;-69
2022/03/28 00:25:27;;;;;;;53.00;25.50;;;;;;;2.31;45.19;99626.73;219574;1275;25415;-69
2022/03/28 00:30:29;;;;;;;53.50;23.50;;;;;;;2.32;45.06;99621.34;219702;1274;23075;-69
2022/03/28 00:35:35;;;;;;;53.70;24.50;;;;;;;2.35;45.52;99622.09;219629;1274;25389;-68
2022/03/28 00:40:39;;;;;;;55.70;24.00;;;;;;;2.38;45.35;99627.17;219798;1274;25206;-68
2022/03/28 00:45:44;;;;;;;55.20;24.50;;;;;;;2.41;45.41;99627.83;220159;1274;25302;-69
2022/03/28 00:50:47;;;;;;;51.60;23.20;;;;;;;2.44;45.45;99630.42;219753;1272;22635;-69
2022/03/28 00:55:50;;;;;;;55.20;22.30;;;;;;;2.44;45.61;99625.14;219842;1274;25422;-69
2022/03/28 01:00:52;;;;;;;47.20;20.90;;;;;;;2.44;45.61;99616.55;219892;1274;22656;-68
2022/03/28 01:05:56;;;;;;;47.60;20.00;;;;;;;2.41;45.53;99608.55;219590;1276;24341;-69
2022/03/28 01:11:05;;;;;;;44.90;20.90;;;;;;;2.36;45.55;99601.23;219436;1276;22921;-69
2022/03/28 01:16:09;;;;;;;42.70;19.70;;;;;;;2.29;45.59;99599.31;219557;1276;24351;-69
2022/03/28 01:21:11;;;;;;;46.70;20.50;;;;;;;2.23;45.84;99596.67;219389;1276;22713;-69
2022/03/28 01:26:15;;;;;;;47.00;19.30;;;;;;;2.16;45.75;99587.19;219416;1276;22612;-69
2022/03/28 01:31:18;;;;;;;41.90;18.60;;;;;;;2.10;45.80;99579.55;219669;1276;22553;-69
2022/03/28 01:36:29;;;;;;;39.60;17.80;;;;;;;2.04;46.05;99568.23;219670;1275;24235;-69
2022/03/28 01:41:31;;;;;;;41.40;17.60;;;;;;;2.00;46.26;99560.41;219679;1274;24375;-68
2022/03/28 01:46:46;;;;;;;38.90;17.60;;;;;;;1.96;46.61;99553.20;219899;1274;25933;-69
2022/03/28 01:51:50;;;;;;;35.80;15.80;;;;;;;1.95;46.95;99544.27;220262;1272;24234;-69
2022/03/28 01:56:52;;;;;;;38.50;17.10;;;;;;;1.98;47.12;99541.16;220050;1274;24206;-69
2022/03/28 02:01:54;;;;;;;39.50;16.60;;;;;;;1.98;46.93;99542.15;219724;1274;23708;-69
2022/03/28 02:06:57;;;;;;;30.90;15.40;;;;;;;1.95;47.02;99549.76;220012;1274;25777;-69
2022/03/28 02:12:02;;;;;;;32.20;15.30;;;;;;;1.94;47.21;99549.92;220051;1274;23016;-68
2022/03/28 02:17:05;;;;;;;34.30;15.30;;;;;;;1.93;47.21;99541.80;219745;1274;22531;-69
2022/03/28 02:22:10;;;;;;;33.50;16.20;;;;;;;1.90;47.15;99537.21;219675;1275;22616;-69
2022/03/28 02:27:13;;;;;;;33.20;15.70;;;;;;;1.85;47.37;99528.67;219654;1274;22559;-69
2022/03/28 02:32:16;;;;;;;32.10;15.10;;;;;;;1.79;47.17;99523.75;219678;1274;22658;-69
2022/03/28 02:37:19;;;;;;;34.50;15.50;;;;;;;1.73;47.18;99524.91;219727;1274;22550;-72
2022/03/28 02:42:24;;;;;;;29.20;14.90;;;;;;;1.67;47.23;99522.60;219398;1276;24237;-70
2022/03/28 02:47:26;;;;;;;25.80;13.40;;;;;;;1.61;47.52;99514.09;220662;1276;24329;-70
2022/03/28 02:52:30;;;;;;;32.80;14.70;;;;;;;1.59;48.00;99512.80;220623;1276;22483;-70
2022/03/28 02:57:36;;;;;;;27.90;13.80;;;;;;;1.59;48.02;99507.88;219437;1276;25255;-70
2022/03/28 03:02:39;;;;;;;33.60;13.70;;;;;;;1.60;48.26;99501.80;219488;1276;22483;-69
2022/03/28 03:07:42;;;;;;;31.60;14.70;;;;;;;1.59;48.23;99499.92;219657;1275;22540;-70
2022/03/28 03:12:44;;;;;;;29.50;14.00;;;;;;;1.58;48.62;99495.19;219578;1276;22564;-70
2022/03/28 03:17:51;;;;;;;30.60;14.60;;;;;;;1.55;48.73;99483.21;219394;1276;22680;-69
2022/03/28 03:23:01;;;;;;;32.10;14.00;;;;;;;1.52;48.66;99483.38;219578;1276;22748;-69
2022/03/28 03:28:06;;;;;;;30.60;15.20;;;;;;;1.50;48.89;99484.36;219389;1276;22593;-69
2022/03/28 03:33:09;;;;;;;33.30;15.20;;;;;;;1.48;48.76;99484.61;219448;1276;23812;-69
2022/03/28 03:38:11;;;;;;;30.60;14.40;;;;;;;1.45;48.78;99482.65;219574;1276;24986;-69
2022/03/28 03:43:16;;;;;;;35.80;15.70;;;;;;;1.39;49.37;99484.77;219799;1274;22843;-70
2022/03/28 03:48:29;;;;;;;34.30;15.10;;;;;;;1.32;49.16;99485.05;219360;1276;24280;-68
2022/03/28 03:53:35;;;;;;;31.10;15.00;;;;;;;1.25;49.22;99478.19;219935;1274;22594;-68
2022/03/28 03:58:38;;;;;;;35.40;14.90;;;;;;;1.16;49.70;99471.27;220037;1274;24197;-68
2022/03/28 04:03:40;;;;;;;33.90;14.70;;;;;;;1.10;49.61;99472.85;219980;1274;22535;-68
2022/03/28 04:08:42;;;;;;;37.60;15.40;;;;;;;1.06;49.92;99466.70;219642;1274;23512;-68
2022/03/28 04:13:45;;;;;;;33.40;14.60;;;;;;;1.04;49.89;99464.95;219836;1274;23796;-69
2022/03/28 04:18:47;;;;;;;37.80;14.80;;;;;;;1.05;50.10;99464.39;219659;1274;22537;-69
2022/03/28 04:23:49;;;;;;;30.50;14.20;;;;;;;1.05;50.07;99463.04;219613;1274;22528;-69
2022/03/28 04:28:51;;;;;;;28.70;13.20;;;;;;;1.07;50.42;99461.65;219620;1274;22563;-69
2022/03/28 04:33:54;;;;;;;31.80;14.40;;;;;;;1.09;50.50;99458.48;220046;1274;25383;-68
2022/03/28 04:38:59;;;;;;;31.20;14.70;;;;;;;1.11;50.77;99454.37;219887;1274;22980;-69
2022/03/28 04:44:02;;;;;;;30.20;13.20;;;;;;;1.12;50.66;99453.76;219892;1276;25341;-69
2022/03/28 04:49:04;;;;;;;26.50;12.80;;;;;;;1.11;50.69;99455.86;219751;1276;22477;-69
2022/03/28 04:54:08;;;;;;;29.80;13.60;;;;;;;1.13;50.76;99453.13;219755;1276;24827;-69
2022/03/28 04:59:11;;;;;;;25.30;12.60;;;;;;;1.18;50.81;99451.13;219484;1276;22486;-70
2022/03/28 05:04:13;;;;;;;26.20;12.00;;;;;;;1.26;50.65;99451.46;219557;1276;25319;-69
2022/03/28 05:09:16;;;;;;;28.30;12.70;;;;;;;1.35;50.65;99450.20;219608;1276;25343;-69
2022/03/28 05:14:18;;;;;;;27.20;13.00;;;;;;;1.45;50.73;99449.45;219747;1275;22797;-70
2022/03/28 05:19:25;;;;;;;23.10;11.70;;;;;;;1.58;50.69;99453.98;219764;1276;23991;-68
2022/03/28 05:24:36;;;;;;;26.50;12.10;;;;;;;1.71;50.78;99458.27;219523;1276;24199;-70
2022/03/28 05:29:39;;;;;;;25.00;12.70;;;;;;;1.86;50.78;99452.33;219739;1276;24155;-70
2022/03/28 05:34:42;;;;;;;28.30;11.90;;;;;;;2.01;50.62;99450.02;219624;1276;24179;-69
2022/03/28 05:39:45;;;;;;;29.10;12.60;;;;;;;2.18;50.60;99447.56;219760;1274;25938;-68
2022/03/28 05:44:47;;;;;;;27.10;12.70;;;;;;;2.35;50.60;99442.05;220096;1274;23829;-70
2022/03/28 05:49:59;;;;;;;27.40;13.20;;;;;;;2.52;50.34;99442.20;220211;1274;22573;-70
2022/03/28 05:55:05;;;;;;;26.40;12.50;;;;;;;2.73;50.18;99438.34;221428;1274;25989;-70
2022/03/28 06:00:13;;;;;;;25.90;12.30;;;;;;;2.96;50.08;99439.02;222150;1273;22536;-71
2022/03/28 06:05:15;;;;;;;24.90;12.00;;;;;;;3.18;50.05;99436.71;222114;1273;22631;-69
2022/03/28 06:10:31;;;;;;;26.90;13.40;;;;;;;3.40;49.87;99434.55;220374;1273;22569;-70
2022/03/28 06:15:50;;;;;;;27.80;13.60;;;;;;;3.67;49.53;99431.15;220561;1273;22591;-68
2022/03/28 06:20:53;;;;;;;26.90;13.00;;;;;;;3.90;49.16;99431.09;221443;1274;22569;-70
2022/03/28 06:25:56;;;;;;;26.30;13.70;;;;;;;4.16;49.27;99428.88;221303;1274;25378;-70
2022/03/28 06:30:58;;;;;;;36.20;13.50;;;;;;;4.42;49.07;99419.61;221393;1274;22600;-69
2022/03/28 06:36:01;;;;;;;24.60;12.50;;;;;;;4.72;48.83;99413.91;220085;1274;26015;-69
2022/03/28 06:41:06;;;;;;;28.80;12.30;;;;;;;5.04;48.49;99413.06;219828;1273;22819;-67
2022/03/28 06:46:09;;;;;;;25.00;11.70;;;;;;;5.39;48.09;99412.29;219770;1275;22569;-69
2022/03/28 06:51:11;;;;;;;25.00;11.40;;;;;;;5.74;47.98;99407.04;219954;1274;25455;-69
2022/03/28 06:56:19;;;;;;;18.30;11.60;;;;;;;6.08;47.33;99399.39;220179;1273;23826;-69
2022/03/28 07:01:22;;;;;;;19.90;9.60;;;;;;;6.43;47.08;99391.02;220604;1274;25952;-69
2022/03/28 07:06:38;;;;;;;17.30;9.20;;;;;;;6.78;46.69;99385.76;220231;1274;25380;-68
2022/03/28 07:11:47;;;;;;;16.20;8.80;;;;;;;7.17;46.37;99377.71;220209;1274;25378;-70
2022/03/28 07:16:49;;;;;;;12.20;7.00;;;;;;;7.55;45.96;99370.14;220097;1274;22601;-68
2022/03/28 07:21:52;;;;;;;12.70;7.30;;;;;;;7.95;45.36;99367.46;219668;1276;25445;-68
2022/03/28 07:26:55;;;;;;;11.80;6.40;;;;;;;8.32;44.86;99364.59;220052;1274;449631;-68
2022/03/28 07:31:57;;;;;;;10.80;6.30;;;;;;;8.65;44.58;99362.38;220516;1273;24926;-68
2022/03/28 07:37:02;;;;;;;15.10;7.90;;;;;;;8.99;43.98;99362.17;220030;1274;24246;-68
2022/03/28 07:42:09;;;;;;;13.40;7.30;;;;;;;9.31;43.48;99353.48;220233;1274;23867;-68
2022/03/28 07:47:15;;;;;;;14.60;8.40;;;;;;;9.62;43.02;99352.36;219908;1274;24422;-68
2022/03/28 07:52:17;;;;;;;10.40;6.10;;;;;;;9.92;43.03;99345.77;220484;1274;22568;-68
2022/03/28 07:57:20;;;;;;;12.30;7.00;;;;;;;10.24;42.57;99340.30;220223;1274;22571;-69
2022/03/28 08:02:25;;;;;;;10.90;6.70;;;;;;;10.51;41.81;99333.98;220666;1274;22585;-68
2022/03/28 08:07:32;;;;;;;13.20;7.60;;;;;;;10.77;41.23;99323.63;220421;1274;22541;-69
2022/03/28 08:12:36;;;;;;;14.30;8.20;;;;;;;11.02;41.37;99313.63;220298;1274;24231;-69
2022/03/28 08:17:43;;;;;;;11.90;7.40;;;;;;;11.29;40.95;99304.02;220104;1274;22538;-68
2022/03/28 08:22:55;;;;;;;11.90;7.00;;;;;;;11.58;41.07;99296.14;220037;1274;24295;-69
2022/03/28 08:27:57;;;;;;;11.60;7.70;;;;;;;11.89;41.01;99289.59;220053;1274;24319;-67
2022/03/28 08:32:59;;;;;;;11.70;6.70;;;;;;;12.15;40.60;99277.73;220139;1273;22587;-69
2022/03/28 08:38:02;;;;;;;11.90;7.60;;;;;;;12.39;40.36;99272.45;219906;1274;24315;-69
2022/03/28 08:43:04;;;;;;;11.70;7.10;;;;;;;12.68;40.13;99268.42;219716;1274;22488;-69
2022/03/28 08:48:14;;;;;;;13.90;7.30;;;;;;;12.86;39.61;99260.64;220303;1272;24158;-68
2022/03/28 08:53:17;;;;;;;15.30;7.00;;;;;;;13.07;39.31;99258.71;219989;1273;22479;-69
2022/03/28 08:58:19;;;;;;;12.20;7.10;;;;;;;13.20;38.79;99249.80;220080;1274;22623;-69
2022/03/28 09:03:40;;;;;;;8.80;5.90;;;;;;;13.41;38.76;99243.06;219987;1274;22884;-69
2022/03/28 09:08:43;;;;;;;10.10;6.40;;;;;;;13.60;37.75;99236.73;220050;1274;22550;-69
2022/03/28 09:14:15;;;;;;;8.90;5.60;;;;;;;13.68;37.71;99230.60;219945;1274;23077;-68
2022/03/28 09:19:17;;;;;;;9.90;6.10;;;;;;;13.86;38.10;99222.07;219986;1274;22474;-69
2022/03/28 09:24:31;;;;;;;9.10;6.20;;;;;;;14.08;37.29;99219.98;220131;1274;24359;-70
2022/03/28 09:30:10;;;;;;;12.20;8.20;;;;;;;14.22;36.84;99216.83;220124;1274;23228;-69
2022/03/28 09:35:30;;;;;;;7.80;5.70;;;;;;;14.48;37.02;99210.52;220143;1274;22542;-69
2022/03/28 09:40:45;;;;;;;7.50;5.60;;;;;;;14.67;36.66;99207.38;220083;1274;23337;-67
2022/03/28 09:45:54;;;;;;;6.00;4.40;;;;;;;14.80;36.83;99198.20;220131;1274;25169;-69
2022/03/28 09:51:01;;;;;;;8.20;5.90;;;;;;;14.98;36.56;99186.31;220251;1274;24790;-69
2022/03/28 09:56:08;;;;;;;9.90;5.70;;;;;;;15.14;36.55;99183.65;220276;1274;25330;-68
2022/03/28 10:01:23;;;;;;;7.50;4.90;;;;;;;15.31;36.42;99172.09;220154;1274;22716;-67
2022/03/28 10:06:26;;;;;;;7.00;5.30;;;;;;;15.41;35.73;99163.85;220351;1273;22531;-67
2022/03/28 10:11:29;;;;;;;6.90;5.20;;;;;;;15.50;36.08;99157.02;220482;1273;22475;-67
2022/03/28 10:16:33;;;;;;;5.70;4.40;;;;;;;15.70;36.33;99144.77;220110;1273;22581;-68
2022/03/28 10:21:37;;;;;;;5.80;4.50;;;;;;;15.88;35.79;99143.84;220260;1274;25873;-68
2022/03/28 10:26:44;;;;;;;6.50;4.90;;;;;;;16.01;35.49;99135.92;220267;1273;22601;-68
2022/03/28 10:31:54;;;;;;;8.30;5.20;;;;;;;16.05;35.18;99123.99;220359;1273;22572;-68
2022/03/28 10:37:31;;;;;;;8.90;5.70;;;;;;;16.18;35.15;99115.20;219917;1274;22655;-68
2022/03/28 10:42:36;;;;;;;5.50;4.30;;;;;;;16.29;34.78;99111.23;220027;1273;24474;-68
2022/03/28 10:47:43;;;;;;;5.10;4.00;;;;;;;16.41;34.39;99104.88;220130;1275;22612;-67
2022/03/28 10:53:33;;;;;;;6.00;4.50;;;;;;;16.52;33.99;99096.17;220185;1273;22543;-67
2022/03/28 10:58:55;;;;;;;;;;;;;;;16.58;33.40;99081.81;220298;1273;24148;-68
2022/03/28 11:04:25;;;;;;;6.00;3.70;;;;;;;16.65;33.77;99070.77;220237;1273;23335;-67
2022/03/28 11:09:46;;;;;;;;;;;;;;;16.75;33.47;99062.07;220329;1273;22684;-67
2022/03/28 11:14:52;;;;;;;6.80;4.50;;;;;;;16.84;33.73;99051.20;220168;1274;23816;-67
2022/03/28 11:19:55;;;;;;;7.90;5.30;;;;;;;17.00;33.47;99048.58;220328;1273;24319;-68
2022/03/28 11:24:58;;;;;;;8.00;4.90;;;;;;;17.08;33.39;99033.81;220468;1273;24650;-68
2022/03/28 11:30:11;;;;;;;5.90;4.50;;;;;;;17.22;33.53;99025.17;220234;1273;24171;-67
2022/03/28 11:35:15;;;;;;;7.60;5.50;;;;;;;17.34;32.96;99019.92;220458;1273;24889;-68
2022/03/28 11:40:18;;;;;;;7.80;5.20;;;;;;;17.41;33.48;99009.14;220464;1273;23737;-68
2022/03/28 11:45:20;;;;;;;7.20;4.60;;;;;;;17.61;33.31;98996.80;220303;1273;24332;-68
2022/03/28 11:50:30;;;;;;;6.00;5.00;;;;;;;17.81;33.52;98980.50;220299;1273;24343;-67
2022/03/28 11:55:32;;;;;;;6.70;5.20;;;;;;;18.00;33.36;98968.41;220171;1273;25217;-67
2022/03/28 12:00:34;;;;;;;6.90;5.00;;;;;;;18.14;32.91;98958.30;220277;1273;24327;-68
2022/03/28 12:05:43;;;;;;;7.00;4.80;;;;;;;18.26;32.97;98951.67;220431;1273;24291;-67
2022/03/28 12:10:51;;;;;;;8.20;5.50;;;;;;;18.34;32.10;98935.44;220236;1275;24210;-67
2022/03/28 12:15:55;;;;;;;7.70;5.10;;;;;;;18.32;31.83;98921.97;220093;1274;25319;-67
2022/03/28 12:20:58;;;;;;;7.00;5.00;;;;;;;18.41;32.39;98913.90;219968;1276;22905;-67
2022/03/28 12:26:06;;;;;;;10.80;4.80;;;;;;;18.52;31.57;98900.06;219895;1274;22489;-68
2022/03/28 12:31:20;;;;;;;5.80;4.30;;;;;;;18.63;31.41;98886.79;220227;1274;22536;-67
2022/03/28 12:36:26;;;;;;;5.60;4.40;;;;;;;18.75;31.47;98867.38;219868;1276;22470;-67
2022/03/28 12:41:28;;;;;;;4.30;3.90;;;;;;;18.88;31.65;98856.86;219932;1274;22580;-67
2022/03/28 12:46:31;;;;;;;4.40;3.20;;;;;;;18.95;30.92;98847.94;220220;1274;22621;-68
2022/03/28 12:51:38;;;;;;;4.50;3.20;;;;;;;18.95;30.77;98844.90;220239;1274;22707;-67
2022/03/28 12:56:44;;;;;;;4.70;3.90;;;;;;;18.95;30.30;98834.98;219985;1274;22738;-68
2022/03/28 13:01:48;;;;;;;4.50;3.50;;;;;;;18.95;30.53;98820.86;220050;1274;22584;-68
2022/03/28 13:06:59;;;;;;;4.10;3.60;;;;;;;19.03;30.34;98811.47;220891;1276;22660;-68
2022/03/28 13:12:12;;;;;;;4.50;3.70;;;;;;;19.16;30.15;98803.69;220300;1274;23717;-69
2022/03/28 13:17:38;;;;;;;4.40;3.40;;;;;;;19.30;30.31;98793.14;220331;1274;22527;-68
2022/03/28 13:22:42;;;;;;;5.70;3.90;;;;;;;19.37;30.09;98788.83;220260;1274;22531;-67
2022/03/28 13:28:01;;;;;;;4.40;3.10;;;;;;;19.37;29.75;98779.36;220475;1274;22548;-68
2022/03/28 13:33:07;;;;;;;5.30;3.50;;;;;;;19.38;29.65;98769.23;220121;1274;23721;-68
2022/03/28 13:38:14;;;;;;;4.70;3.30;;;;;;;19.45;30.10;98770.34;220205;1274;23052;-68
2022/03/28 13:43:18;;;;;;;3.70;3.30;;;;;;;19.46;30.23;98764.77;220327;1274;22719;-68
2022/03/28 13:48:23;;;;;;;5.90;4.20;;;;;;;19.38;30.08;98750.28;220146;1274;22567;-67
2022/03/28 13:53:25;;;;;;;5.00;3.90;;;;;;;19.43;29.92;98741.95;220184;1274;22849;-69
2022/03/28 13:58:29;;;;;;;4.30;3.30;;;;;;;19.46;30.21;98738.69;220385;1274;24734;-69
2022/03/28 14:03:38;;;;;;;5.80;4.30;;;;;;;19.43;30.68;98729.23;219933;1274;22052;-68
2022/03/28 14:08:41;;;;;;;4.40;3.80;;;;;;;19.43;30.71;98719.29;219905;1274;24264;-69
2022/03/28 14:13:43;;;;;;;5.50;4.40;;;;;;;19.45;30.78;98711.59;219651;1275;22924;-70
2022/03/28 14:18:47;;;;;;;4.50;4.00;;;;;;;19.42;30.73;98694.91;220194;1273;23688;-69
2022/03/28 14:23:49;;;;;;;5.70;4.10;;;;;;;19.40;30.68;98691.66;220278;1273;22533;-69
2022/03/28 14:28:51;;;;;;;5.70;4.90;;;;;;;19.33;30.66;98681.31;219996;1273;22752;-69
2022/03/28 14:33:53;;;;;;;4.80;4.00;;;;;;;19.25;30.85;98668.88;220111;1273;22656;-69
2022/03/28 14:38:55;;;;;;;4.20;3.70;;;;;;;19.22;31.12;98661.36;219878;1274;22588;-69
2022/03/28 14:43:59;;;;;;;4.40;3.50;;;;;;;19.19;30.97;98658.48;220175;1273;22798;-70
2022/03/28 14:49:11;;;;;;;4.20;3.80;;;;;;;19.17;31.26;98653.84;219665;1275;24300;-69
2022/03/28 14:54:17;;;;;;;4.30;3.70;;;;;;;19.12;31.36;98651.01;220351;1273;23073;-69
2022/03/28 14:59:27;;;;;;;4.80;4.00;;;;;;;19.11;31.69;98644.83;219925;1273;22558;-67
2022/03/28 15:04:32;;;;;;;5.30;4.30;;;;;;;19.05;31.18;98635.62;220103;1273;22831;-70
2022/03/28 15:09:35;;;;;;;5.50;4.50;;;;;;;18.95;31.35;98634.05;220026;1273;22697;-69
2022/03/28 15:14:37;;;;;;;5.40;4.20;;;;;;;18.89;31.84;98632.72;219740;1273;23036;-69
2022/03/28 15:19:39;;;;;;;6.20;4.50;;;;;;;18.87;31.39;98621.66;219878;1273;24413;-69
2022/03/28 15:24:48;;;;;;;4.60;3.80;;;;;;;18.85;31.72;98620.02;219575;1274;22615;-69
2022/03/28 15:29:50;;;;;;;6.30;4.10;;;;;;;18.77;31.39;98613.00;220018;1274;25406;-69
2022/03/28 15:34:52;;;;;;;6.70;4.00;;;;;;;18.65;31.30;98611.17;220257;1273;22686;-70
2022/03/28 15:39:55;;;;;;;9.60;7.10;;;;;;;18.53;31.49;98605.36;219938;1274;22569;-68
2022/03/28 15:45:03;;;;;;;5.70;4.70;;;;;;;18.44;31.60;98599.00;219897;1273;22599;-69
2022/03/28 15:50:06;;;;;;;6.10;4.60;;;;;;;18.35;31.74;98596.59;220151;1273;22556;-70
2022/03/28 15:55:09;;;;;;;5.80;4.90;;;;;;;18.23;31.85;98589.83;220115;1273;24317;-70
2022/03/28 16:00:12;;;;;;;5.70;4.60;;;;;;;18.11;32.39;98586.06;220084;1273;25203;-69
2022/03/28 16:05:17;;;;;;;7.10;5.20;;;;;;;17.99;32.78;98576.65;220084;1274;23776;-70
2022/03/28 16:10:30;;;;;;;5.50;4.20;;;;;;;17.83;33.17;98573.38;219986;1274;23773;-69
2022/03/28 16:15:34;;;;;;;6.00;4.40;;;;;;;17.68;33.57;98568.98;219935;1275;25479;-70
2022/03/28 16:20:36;;;;;;;6.60;4.80;;;;;;;17.53;33.86;98566.29;219700;1276;25389;-68
2022/03/28 16:25:38;;;;;;;8.20;5.80;;;;;;;17.38;34.19;98561.55;219774;1274;24232;-69
2022/03/28 16:30:43;;;;;;;5.80;4.00;;;;;;;17.22;34.56;98553.79;219254;1276;22576;-69
2022/03/28 16:35:46;;;;;;;7.50;4.60;;;;;;;17.05;34.90;98542.10;220158;1274;25255;-69
2022/03/28 16:40:52;;;;;;;6.60;4.90;;;;;;;16.89;35.20;98538.09;219750;1274;24192;-70
2022/03/28 16:46:00;;;;;;;5.50;4.50;;;;;;;16.71;35.53;98535.86;219765;1274;22564;-69
2022/03/28 16:51:06;;;;;;;8.20;5.60;;;;;;;16.53;35.79;98534.25;220047;1275;22568;-70
2022/03/28 16:56:09;;;;;;;7.70;5.90;;;;;;;16.35;36.09;98527.85;219842;1276;22538;-69
2022/03/28 17:01:11;;;;;;;9.80;5.40;;;;;;;16.16;36.44;98526.52;219890;1274;23328;-70
2022/03/28 17:06:16;;;;;;;10.20;6.00;;;;;;;15.94;36.96;98524.91;220001;1276;22552;-68
2022/03/28 17:11:18;;;;;;;11.50;6.40;;;;;;;15.72;37.33;98522.77;219876;1275;22558;-69
2022/03/28 17:16:35;;;;;;;8.30;6.20;;;;;;;15.49;37.59;98516.55;220029;1275;22498;-69
2022/03/28 17:21:48;;;;;;;10.40;6.10;;;;;;;15.23;38.09;98513.88;220240;1274;22727;-69
2022/03/28 17:26:50;;;;;;;10.60;6.20;;;;;;;15.01;38.44;98509.38;220107;1274;22565;-70
2022/03/28 17:31:52;;;;;;;10.30;6.90;;;;;;;14.84;38.94;98511.30;219775;1274;22561;-69
2022/03/28 17:36:55;;;;;;;18.50;11.00;;;;;;;14.70;39.27;98510.73;220192;1274;22586;-69
2022/03/28 17:41:58;;;;;;;19.20;10.20;;;;;;;14.54;39.49;98508.73;221164;1273;22698;-70
2022/03/28 17:47:04;;;;;;;11.30;7.70;;;;;;;14.33;39.86;98506.17;220994;1274;22526;-69
2022/03/28 17:52:06;;;;;;;12.80;8.10;;;;;;;14.18;40.51;98506.92;221204;1272;22710;-70
2022/03/28 17:57:09;;;;;;;15.30;9.00;;;;;;;14.12;41.00;98507.75;220146;1274;24313;-69
2022/03/28 18:02:11;;;;;;;11.20;7.70;;;;;;;14.04;40.95;98500.44;220269;1274;25367;-70
2022/03/28 18:07:14;;;;;;;12.40;7.70;;;;;;;13.87;41.10;98495.19;219904;1275;22718;-70
2022/03/28 18:12:16;;;;;;;15.70;8.30;;;;;;;13.70;41.24;98495.75;219909;1274;24300;-69
2022/03/28 18:17:20;;;;;;;15.80;8.90;;;;;;;13.57;41.67;98490.54;220140;1273;24183;-69
2022/03/28 18:22:22;;;;;;;15.30;9.60;;;;;;;13.53;41.97;98487.64;220122;1274;25439;-70
2022/03/28 18:27:24;;;;;;;17.90;11.10;;;;;;;13.56;41.99;98487.66;220200;1274;22669;-72
2022/03/28 18:32:27;;;;;;;16.60;10.50;;;;;;;13.56;42.22;98486.72;221253;1273;22581;-70
2022/03/28 18:37:29;;;;;;;16.50;10.40;;;;;;;13.48;42.35;98488.27;219939;1274;22596;-69
2022/03/28 18:42:31;;;;;;;15.10;9.50;;;;;;;13.39;42.70;98491.84;220210;1274;23845;-70
2022/03/28 18:47:33;;;;;;;17.80;10.00;;;;;;;13.33;43.31;98490.72;219766;1274;24244;-70
2022/03/28 18:52:37;;;;;;;16.50;10.40;;;;;;;13.29;43.51;98490.23;219989;1273;22492;-71
2022/03/28 18:57:41;;;;;;;16.80;10.80;;;;;;;13.21;43.50;98489.30;221365;1273;22655;-72
2022/03/28 19:02:45;;;;;;;15.90;9.90;;;;;;;13.09;43.77;98487.75;220952;1274;24199;-70
2022/03/28 19:07:48;;;;;;;15.20;9.40;;;;;;;12.98;44.10;98487.08;220101;1274;24531;-70
2022/03/28 19:12:50;;;;;;;13.70;8.90;;;;;;;12.89;44.22;98486.73;220167;1274;25256;-70
2022/03/28 19:17:53;;;;;;;13.20;8.10;;;;;;;12.75;44.27;98486.73;220355;1273;25333;-68
2022/03/28 19:22:59;;;;;;;12.50;8.40;;;;;;;12.60;44.52;98481.58;219901;1274;22535;-69
2022/03/28 19:28:02;;;;;;;14.60;8.90;;;;;;;12.48;44.79;98474.38;219613;1274;523966;-68
2022/03/28 19:33:05;;;;;;;12.40;7.80;;;;;;;12.36;44.90;98476.92;220078;1273;25212;-69
2022/03/28 19:38:09;;;;;;;12.20;7.60;;;;;;;12.22;44.98;98472.92;220015;1274;25386;-69
2022/03/28 19:43:18;;;;;;;13.10;7.70;;;;;;;12.09;45.44;98467.27;220296;1273;23006;-69
2022/03/28 19:48:20;;;;;;;14.70;8.10;;;;;;;12.01;45.72;98458.16;220292;1273;25358;-69
2022/03/28 19:53:27;;;;;;;12.20;8.00;;;;;;;11.98;46.16;98451.75;220452;1273;25265;-69
2022/03/28 19:58:29;;;;;;;16.20;7.70;;;;;;;11.88;45.98;98445.83;221350;1273;22726;-68
2022/03/28 20:03:31;;;;;;;13.20;7.70;;;;;;;11.70;46.05;98442.75;220220;1273;22581;-70
2022/03/28 20:08:33;;;;;;;12.10;7.90;;;;;;;11.51;46.33;98435.94;220299;1274;22964;-70
2022/03/28 20:13:39;;;;;;;11.30;7.20;;;;;;;11.36;46.49;98424.91;221199;1273;25207;-70
2022/03/28 20:18:41;;;;;;;10.60;7.70;;;;;;;11.21;46.69;98428.27;221123;1273;22632;-69
2022/03/28 20:23:47;;;;;;;11.80;7.70;;;;;;;11.03;46.79;98419.85;221261;1274;22545;-69
2022/03/28 20:28:52;;;;;;;12.10;7.80;;;;;;;10.86;47.02;98412.27;220221;1273;22474;-70
2022/03/28 20:33:54;;;;;;;17.90;9.30;;;;;;;10.70;47.17;98404.04;220079;1273;22569;-69
2022/03/28 20:38:56;;;;;;;12.60;8.20;;;;;;;10.57;47.47;98394.54;220080;1273;22533;-70
2022/03/28 20:43:58;;;;;;;12.40;8.20;;;;;;;10.47;47.74;98386.17;220043;1273;24253;-68
2022/03/28 20:49:01;;;;;;;15.40;8.70;;;;;;;10.41;48.00;98384.63;220164;1274;22560;-69
2022/03/28 20:54:03;;;;;;;14.00;8.50;;;;;;;10.34;47.91;98373.39;221143;1273;22588;-70
2022/03/28 20:59:14;;;;;;;13.40;8.90;;;;;;;10.35;48.47;98369.89;219910;1274;22561;-70
2022/03/28 21:04:21;;;;;;;14.10;9.10;;;;;;;10.44;48.51;98371.50;220219;1273;22603;-71
2022/03/28 21:09:24;;;;;;;13.90;8.30;;;;;;;10.50;48.22;98366.39;220977;1273;25370;-70
2022/03/28 21:14:28;;;;;;;16.00;9.30;;;;;;;10.47;48.11;98364.27;221169;1273;22686;-69
2022/03/28 21:19:36;;;;;;;19.30;9.80;;;;;;;10.40;47.98;98357.48;220157;1273;24224;-70
2022/03/28 21:24:39;;;;;;;14.50;8.70;;;;;;;10.32;47.98;98355.46;220966;1274;25319;-70
2022/03/28 21:29:42;;;;;;;14.70;8.70;;;;;;;10.24;48.02;98348.77;221082;1273;24395;-69
2022/03/28 21:34:45;;;;;;;14.40;8.60;;;;;;;10.14;48.10;98339.19;220059;1274;22546;-71
2022/03/28 21:39:50;;;;;;;14.60;8.90;;;;;;;10.03;48.22;98335.90;221125;1273;25332;-70
2022/03/28 21:44:52;;;;;;;19.10;9.20;;;;;;;9.94;48.45;98335.21;221155;1273;22810;-70
2022/03/28 21:49:57;;;;;;;19.00;10.10;;;;;;;9.87;48.69;98329.66;220043;1273;22754;-70
2022/03/28 21:55:17;;;;;;;20.80;11.60;;;;;;;9.80;49.00;98323.04;220076;1273;25379;-69
2022/03/28 22:00:40;;;;;;;20.30;10.70;;;;;;;9.77;49.02;98313.55;219464;1276;25288;-69
2022/03/28 22:05:44;;;;;;;23.60;11.60;;;;;;;9.71;49.25;98303.72;219670;1274;22542;-69
2022/03/28 22:10:46;;;;;;;22.60;13.00;;;;;;;9.67;49.31;98295.48;220218;1273;25252;-69
2022/03/28 22:15:49;;;;;;;24.30;12.80;;;;;;;9.63;49.42;98288.98;219941;1273;25979;-69
2022/03/28 22:20:52;;;;;;;24.20;13.90;;;;;;;9.62;49.73;98283.33;220167;1273;22683;-69
2022/03/28 22:25:54;;;;;;;28.00;14.00;;;;;;;9.68;50.16;98279.01;220176;1274;22592;-69
2022/03/28 22:30:56;;;;;;;23.20;13.10;;;;;;;9.73;50.14;98270.61;220198;1273;22704;-70
2022/03/28 22:35:59;;;;;;;23.90;12.90;;;;;;;9.82;50.40;98265.35;220112;1273;22557;-69
2022/03/28 22:41:01;;;;;;;27.10;14.50;;;;;;;9.94;50.52;98267.63;220234;1273;24130;-69
2022/03/28 22:46:04;;;;;;;20.50;12.00;;;;;;;10.06;50.60;98254.88;220114;1273;22592;-69
2022/03/28 22:51:07;;;;;;;25.00;13.40;;;;;;;10.18;50.56;98253.42;220040;1273;24126;-69
2022/03/28 22:56:09;;;;;;;23.30;12.60;;;;;;;10.29;50.60;98253.04;219796;1273;24281;-69
2022/03/28 23:01:14;;;;;;;21.00;12.00;;;;;;;10.40;50.62;98251.83;220080;1273;24238;-69
2022/03/28 23:06:17;;;;;;;21.30;12.00;;;;;;;10.50;50.63;98238.52;220315;1273;24341;-69
2022/03/28 23:11:19;;;;;;;21.00;12.10;;;;;;;10.53;50.72;98232.80;220136;1273;22587;-69
2022/03/28 23:16:21;;;;;;;18.50;10.80;;;;;;;10.56;50.79;98235.06;220232;1273;22586;-69
2022/03/28 23:21:28;;;;;;;19.00;10.00;;;;;;;10.67;51.08;98227.19;220051;1274;22486;-70
2022/03/28 23:26:31;;;;;;;15.80;10.00;;;;;;;10.81;50.94;98225.07;219617;1274;22647;-70